sensor_id;sensor_type;location;lat;lon;timestamp;temperature;humidity
9973;DHT22;5027;53.560;10.062;2024-03-02T00:01:06;12.50;99.90
9973;DHT22;5027;53.560;10.062;2024-03-02T00:03:34;12.50;99.90
9973;DHT22;5027;53.560;10.062;2024-03-02T00:06:00;12.50;99.90
9973;DHT22;5027;53.560;10.062;2024-03-02T00:08:27;12.50;99.90
9973;DHT22;5027;53.560;10.062;2024-03-02T00:10:59;12.40;99.90
9973;DHT22;5027;53.560;10.062;2024-03-02T00:13:27;12.40;99.90
9973;DHT22;5027;53.560;10.062;2024-03-02T00:15:55;12.50;99.90
9973;DHT22;5027;53.560;10.062;2024-03-02T00:18:27;12.50;99.90
9973;DHT22;5027;53.560;10.062;2024-03-02T00:20:57;12.60;99.90
9973;DHT22;5027;53.560;10.062;2024-03-02T00:23:27;12.50;99.90
9973;DHT22;5027;53.560;10.062;2024-03-02T00:25:55;12.60;99.90
9973;DHT22;5027;53.560;10.062;2024-03-02T00:28:25;12.60;99.90
9973;DHT22;5027;53.560;10.062;2024-03-02T00:30:58;12.50;99.90
9973;DHT22;5027;53.560;10.062;2024-03-02T00:33:36;12.50;99.90
9973;DHT22;5027;53.560;10.062;2024-03-02T00:36:04;12.50;99.90
9973;DHT22;5027;53.560;10.062;2024-03-02T00:38:32;12.50;99.90
9973;DHT22;5027;53.560;10.062;2024-03-02T00:41:05;12.50;99.90
9973;DHT22;5027;53.560;10.062;2024-03-02T00:43:45;12.50;99.90
9973;DHT22;5027;53.560;10.062;2024-03-02T00:46:23;12.50;99.90
9973;DHT22;5027;53.560;10.062;2024-03-02T00:48:55;12.50;99.90
9973;DHT22;5027;53.560;10.062;2024-03-02T00:51:25;12.40;99.90
9973;DHT22;5027;53.560;10.062;2024-03-02T00:53:53;12.40;99.90
9973;DHT22;5027;53.560;10.062;2024-03-02T00:56:23;12.40;99.90
9973;DHT22;5027;53.560;10.062;2024-03-02T00:58:51;12.40;99.90
9973;DHT22;5027;53.560;10.062;2024-03-02T01:01:19;12.40;99.90
9973;DHT22;5027;53.560;10.062;2024-03-02T01:03:49;12.40;99.90
9973;DHT22;5027;53.560;10.062;2024-03-02T01:06:16;12.40;99.90
9973;DHT22;5027;53.560;10.062;2024-03-02T01:08:43;12.30;99.90
9973;DHT22;5027;53.560;10.062;2024-03-02T01:11:10;12.40;99.90
9973;DHT22;5027;53.560;10.062;2024-03-02T01:13:37;12.40;99.90
9973;DHT22;5027;53.560;10.062;2024-03-02T01:16:04;12.30;99.90
9973;DHT22;5027;53.560;10.062;2024-03-02T01:18:31;12.30;99.90
9973;DHT22;5027;53.560;10.062;2024-03-02T01:20:58;12.30;99.90
9973;DHT22;5027;53.560;10.062;2024-03-02T01:23:25;12.30;99.90
9973;DHT22;5027;53.560;10.062;2024-03-02T01:25:52;12.30;99.90
9973;DHT22;5027;53.560;10.062;2024-03-02T01:28:19;12.30;99.90
9973;DHT22;5027;53.560;10.062;2024-03-02T01:30:47;12.30;99.90
9973;DHT22;5027;53.560;10.062;2024-03-02T01:33:14;12.30;99.90
9973;DHT22;5027;53.560;10.062;2024-03-02T01:35:41;12.30;99.90
9973;DHT22;5027;53.560;10.062;2024-03-02T01:38:08;12.30;99.90
9973;DHT22;5027;53.560;10.062;2024-03-02T01:40:35;12.30;99.90
9973;DHT22;5027;53.560;10.062;2024-03-02T01:43:04;12.30;99.90
9973;DHT22;5027;53.560;10.062;2024-03-02T01:45:31;12.30;99.90
9973;DHT22;5027;53.560;10.062;2024-03-02T01:47:59;12.20;99.90
9973;DHT22;5027;53.560;10.062;2024-03-02T01:50:27;12.20;99.90
9973;DHT22;5027;53.560;10.062;2024-03-02T01:52:56;12.20;99.90
9973;DHT22;5027;53.560;10.062;2024-03-02T01:55:23;12.20;99.90
9973;DHT22;5027;53.560;10.062;2024-03-02T01:57:50;12.30;99.90
9973;DHT22;5027;53.560;10.062;2024-03-02T02:00:18;12.20;99.90
9973;DHT22;5027;53.560;10.062;2024-03-02T02:02:47;12.20;99.90
9973;DHT22;5027;53.560;10.062;2024-03-02T02:05:14;12.30;99.90
9973;DHT22;5027;53.560;10.062;2024-03-02T02:07:42;12.30;99.90
9973;DHT22;5027;53.560;10.062;2024-03-02T02:10:12;12.20;99.90
9973;DHT22;5027;53.560;10.062;2024-03-02T02:12:39;12.20;99.90
9973;DHT22;5027;53.560;10.062;2024-03-02T02:17:52;12.20;99.90
9973;DHT22;5027;53.560;10.062;2024-03-02T02:20:19;12.20;99.90
9973;DHT22;5027;53.560;10.062;2024-03-02T02:23:04;12.10;99.90
9973;DHT22;5027;53.560;10.062;2024-03-02T02:25:36;12.00;99.90
9973;DHT22;5027;53.560;10.062;2024-03-02T02:28:03;12.00;99.90
9973;DHT22;5027;53.560;10.062;2024-03-02T02:30:31;12.10;99.90
9973;DHT22;5027;53.560;10.062;2024-03-02T02:32:58;12.00;99.90
9973;DHT22;5027;53.560;10.062;2024-03-02T02:35:25;12.00;99.90
9973;DHT22;5027;53.560;10.062;2024-03-02T02:37:54;12.00;99.90
9973;DHT22;5027;53.560;10.062;2024-03-02T02:40:21;12.00;99.90
9973;DHT22;5027;53.560;10.062;2024-03-02T02:42:49;12.00;99.90
9973;DHT22;5027;53.560;10.062;2024-03-02T02:45:16;12.00;99.90
9973;DHT22;5027;53.560;10.062;2024-03-02T02:47:44;12.00;99.90
9973;DHT22;5027;53.560;10.062;2024-03-02T02:50:12;12.00;99.90
9973;DHT22;5027;53.560;10.062;2024-03-02T02:52:40;11.90;99.90
9973;DHT22;5027;53.560;10.062;2024-03-02T02:55:12;11.90;99.90
9973;DHT22;5027;53.560;10.062;2024-03-02T02:57:40;11.90;99.90
9973;DHT22;5027;53.560;10.062;2024-03-02T03:00:13;12.00;99.90
9973;DHT22;5027;53.560;10.062;2024-03-02T03:02:44;12.00;99.90
9973;DHT22;5027;53.560;10.062;2024-03-02T03:05:13;12.00;99.90
9973;DHT22;5027;53.560;10.062;2024-03-02T03:07:41;11.90;99.90
9973;DHT22;5027;53.560;10.062;2024-03-02T03:10:08;11.90;99.90
9973;DHT22;5027;53.560;10.062;2024-03-02T03:12:35;11.90;99.90
9973;DHT22;5027;53.560;10.062;2024-03-02T03:15:03;11.90;99.90
9973;DHT22;5027;53.560;10.062;2024-03-02T03:17:31;11.90;99.90
9973;DHT22;5027;53.560;10.062;2024-03-02T03:19:58;11.90;99.90
9973;DHT22;5027;53.560;10.062;2024-03-02T03:22:25;12.00;99.90
9973;DHT22;5027;53.560;10.062;2024-03-02T03:24:51;11.90;99.90
9973;DHT22;5027;53.560;10.062;2024-03-02T03:27:18;11.90;99.90
9973;DHT22;5027;53.560;10.062;2024-03-02T03:29:46;11.90;99.90
9973;DHT22;5027;53.560;10.062;2024-03-02T03:32:13;11.90;99.90
9973;DHT22;5027;53.560;10.062;2024-03-02T03:34:40;11.90;99.90
9973;DHT22;5027;53.560;10.062;2024-03-02T03:37:07;11.90;99.90
9973;DHT22;5027;53.560;10.062;2024-03-02T03:39:34;11.90;99.90
9973;DHT22;5027;53.560;10.062;2024-03-02T03:42:03;11.90;99.90
9973;DHT22;5027;53.560;10.062;2024-03-02T03:44:30;11.90;99.90
9973;DHT22;5027;53.560;10.062;2024-03-02T03:46:56;11.90;99.90
9973;DHT22;5027;53.560;10.062;2024-03-02T03:49:23;11.90;99.90
9973;DHT22;5027;53.560;10.062;2024-03-02T03:51:50;11.80;99.90
9973;DHT22;5027;53.560;10.062;2024-03-02T03:54:17;11.80;99.90
9973;DHT22;5027;53.560;10.062;2024-03-02T03:56:44;11.80;99.90
9973;DHT22;5027;53.560;10.062;2024-03-02T03:59:10;11.80;99.90
9973;DHT22;5027;53.560;10.062;2024-03-02T04:01:37;11.80;99.90
9973;DHT22;5027;53.560;10.062;2024-03-02T04:04:04;11.90;99.90
9973;DHT22;5027;53.560;10.062;2024-03-02T04:06:31;11.90;99.90
9973;DHT22;5027;53.560;10.062;2024-03-02T04:08:58;11.80;99.90
9973;DHT22;5027;53.560;10.062;2024-03-02T04:11:25;11.90;99.90
9973;DHT22;5027;53.560;10.062;2024-03-02T04:13:52;11.90;99.90
9973;DHT22;5027;53.560;10.062;2024-03-02T04:16:21;11.80;99.90
9973;DHT22;5027;53.560;10.062;2024-03-02T04:18:48;11.90;99.90
9973;DHT22;5027;53.560;10.062;2024-03-02T04:21:14;11.80;99.90
9973;DHT22;5027;53.560;10.062;2024-03-02T04:23:41;11.80;99.90
9973;DHT22;5027;53.560;10.062;2024-03-02T04:26:08;11.80;99.90
9973;DHT22;5027;53.560;10.062;2024-03-02T04:28:35;11.80;99.90
9973;DHT22;5027;53.560;10.062;2024-03-02T04:31:02;11.90;99.90
9973;DHT22;5027;53.560;10.062;2024-03-02T04:33:29;11.80;99.90
9973;DHT22;5027;53.560;10.062;2024-03-02T04:35:55;11.80;99.90
9973;DHT22;5027;53.560;10.062;2024-03-02T04:38:22;11.80;99.90
9973;DHT22;5027;53.560;10.062;2024-03-02T04:40:49;11.80;99.90
9973;DHT22;5027;53.560;10.062;2024-03-02T04:43:15;11.80;99.90
9973;DHT22;5027;53.560;10.062;2024-03-02T04:45:43;11.90;99.90
9973;DHT22;5027;53.560;10.062;2024-03-02T04:48:10;11.80;99.90
9973;DHT22;5027;53.560;10.062;2024-03-02T04:50:36;11.80;99.90
9973;DHT22;5027;53.560;10.062;2024-03-02T04:53:03;11.90;99.90
9973;DHT22;5027;53.560;10.062;2024-03-02T04:55:30;11.90;99.90
9973;DHT22;5027;53.560;10.062;2024-03-02T04:58:06;11.90;99.90
9973;DHT22;5027;53.560;10.062;2024-03-02T05:00:35;11.80;99.90
9973;DHT22;5027;53.560;10.062;2024-03-02T05:03:02;11.80;99.90
9973;DHT22;5027;53.560;10.062;2024-03-02T05:05:29;11.80;99.90
9973;DHT22;5027;53.560;10.062;2024-03-02T05:07:56;11.80;99.90
9973;DHT22;5027;53.560;10.062;2024-03-02T05:10:22;11.80;99.90
9973;DHT22;5027;53.560;10.062;2024-03-02T05:12:49;11.70;99.90
9973;DHT22;5027;53.560;10.062;2024-03-02T05:15:27;11.80;99.90
9973;DHT22;5027;53.560;10.062;2024-03-02T05:17:54;11.80;99.90
9973;DHT22;5027;53.560;10.062;2024-03-02T05:20:21;11.90;99.90
9973;DHT22;5027;53.560;10.062;2024-03-02T05:22:47;11.80;99.90
9973;DHT22;5027;53.560;10.062;2024-03-02T05:25:16;11.90;99.90
9973;DHT22;5027;53.560;10.062;2024-03-02T05:27:42;11.90;99.90
9973;DHT22;5027;53.560;10.062;2024-03-02T05:30:10;11.70;99.90
9973;DHT22;5027;53.560;10.062;2024-03-02T05:32:36;11.70;99.90
9973;DHT22;5027;53.560;10.062;2024-03-02T05:35:04;11.70;99.90
9973;DHT22;5027;53.560;10.062;2024-03-02T05:37:31;11.70;99.90
9973;DHT22;5027;53.560;10.062;2024-03-02T05:39:58;11.70;99.90
9973;DHT22;5027;53.560;10.062;2024-03-02T05:42:26;11.70;99.90
9973;DHT22;5027;53.560;10.062;2024-03-02T05:44:53;11.70;99.90
9973;DHT22;5027;53.560;10.062;2024-03-02T05:47:20;11.70;99.90
9973;DHT22;5027;53.560;10.062;2024-03-02T05:49:47;11.60;99.90
9973;DHT22;5027;53.560;10.062;2024-03-02T05:52:14;11.70;99.90
9973;DHT22;5027;53.560;10.062;2024-03-02T05:54:40;11.70;99.90
9973;DHT22;5027;53.560;10.062;2024-03-02T05:57:07;11.70;99.90
9973;DHT22;5027;53.560;10.062;2024-03-02T05:59:47;11.70;99.90
9973;DHT22;5027;53.560;10.062;2024-03-02T06:02:14;11.70;99.90
9973;DHT22;5027;53.560;10.062;2024-03-02T06:04:41;11.70;99.90
9973;DHT22;5027;53.560;10.062;2024-03-02T06:07:07;11.80;99.90
9973;DHT22;5027;53.560;10.062;2024-03-02T06:09:34;11.70;99.90
9973;DHT22;5027;53.560;10.062;2024-03-02T06:12:01;11.60;99.90
9973;DHT22;5027;53.560;10.062;2024-03-02T06:14:27;11.70;99.90
9973;DHT22;5027;53.560;10.062;2024-03-02T06:16:54;11.70;99.90
9973;DHT22;5027;53.560;10.062;2024-03-02T06:19:21;11.70;99.90
9973;DHT22;5027;53.560;10.062;2024-03-02T06:21:48;11.70;99.90
9973;DHT22;5027;53.560;10.062;2024-03-02T06:24:14;11.70;99.90
9973;DHT22;5027;53.560;10.062;2024-03-02T06:26:41;11.70;99.90
9973;DHT22;5027;53.560;10.062;2024-03-02T06:29:08;11.70;99.90
9973;DHT22;5027;53.560;10.062;2024-03-02T06:31:35;11.60;99.90
9973;DHT22;5027;53.560;10.062;2024-03-02T06:34:01;11.70;99.90
9973;DHT22;5027;53.560;10.062;2024-03-02T06:36:30;11.70;99.90
9973;DHT22;5027;53.560;10.062;2024-03-02T06:38:57;11.70;99.90
9973;DHT22;5027;53.560;10.062;2024-03-02T06:41:23;11.70;99.90
9973;DHT22;5027;53.560;10.062;2024-03-02T06:43:50;11.70;99.90
9973;DHT22;5027;53.560;10.062;2024-03-02T06:46:20;11.60;99.90
9973;DHT22;5027;53.560;10.062;2024-03-02T06:48:47;11.70;99.90
9973;DHT22;5027;53.560;10.062;2024-03-02T06:51:14;11.60;99.90
9973;DHT22;5027;53.560;10.062;2024-03-02T06:53:42;11.60;99.90
9973;DHT22;5027;53.560;10.062;2024-03-02T06:56:09;11.60;99.90
9973;DHT22;5027;53.560;10.062;2024-03-02T06:58:35;11.60;99.90
9973;DHT22;5027;53.560;10.062;2024-03-02T07:01:02;11.60;99.90
9973;DHT22;5027;53.560;10.062;2024-03-02T07:03:29;11.60;99.90
9973;DHT22;5027;53.560;10.062;2024-03-02T07:05:56;11.60;99.90
9973;DHT22;5027;53.560;10.062;2024-03-02T07:08:23;11.50;99.90
9973;DHT22;5027;53.560;10.062;2024-03-02T07:10:50;11.60;99.90
9973;DHT22;5027;53.560;10.062;2024-03-02T07:13:17;11.60;99.90
9973;DHT22;5027;53.560;10.062;2024-03-02T07:15:43;11.60;99.90
9973;DHT22;5027;53.560;10.062;2024-03-02T07:18:32;11.60;99.90
9973;DHT22;5027;53.560;10.062;2024-03-02T07:21:07;11.60;99.90
9973;DHT22;5027;53.560;10.062;2024-03-02T07:23:34;11.60;99.90
9973;DHT22;5027;53.560;10.062;2024-03-02T07:26:01;11.60;99.90
9973;DHT22;5027;53.560;10.062;2024-03-02T07:28:31;11.60;99.90
9973;DHT22;5027;53.560;10.062;2024-03-02T07:31:03;11.70;99.90
9973;DHT22;5027;53.560;10.062;2024-03-02T07:33:31;11.70;99.90
9973;DHT22;5027;53.560;10.062;2024-03-02T07:35:59;11.70;99.90
9973;DHT22;5027;53.560;10.062;2024-03-02T07:38:31;11.70;99.90
9973;DHT22;5027;53.560;10.062;2024-03-02T07:40:58;11.70;99.90
9973;DHT22;5027;53.560;10.062;2024-03-02T07:43:25;11.80;99.90
9973;DHT22;5027;53.560;10.062;2024-03-02T07:45:51;11.80;99.90
9973;DHT22;5027;53.560;10.062;2024-03-02T07:48:18;11.70;99.90
9973;DHT22;5027;53.560;10.062;2024-03-02T07:50:45;11.80;99.90
9973;DHT22;5027;53.560;10.062;2024-03-02T07:53:12;11.70;99.90
9973;DHT22;5027;53.560;10.062;2024-03-02T07:55:39;11.80;99.90
9973;DHT22;5027;53.560;10.062;2024-03-02T07:58:06;11.70;99.90
9973;DHT22;5027;53.560;10.062;2024-03-02T08:00:33;11.70;99.90
9973;DHT22;5027;53.560;10.062;2024-03-02T08:03:00;11.80;99.90
9973;DHT22;5027;53.560;10.062;2024-03-02T08:05:27;11.80;99.90
9973;DHT22;5027;53.560;10.062;2024-03-02T08:07:54;11.80;99.90
9973;DHT22;5027;53.560;10.062;2024-03-02T08:10:21;11.80;99.90
9973;DHT22;5027;53.560;10.062;2024-03-02T08:12:48;11.80;99.90
9973;DHT22;5027;53.560;10.062;2024-03-02T08:15:14;11.70;99.90
9973;DHT22;5027;53.560;10.062;2024-03-02T08:17:41;11.80;99.90
9973;DHT22;5027;53.560;10.062;2024-03-02T08:20:15;11.80;99.90
9973;DHT22;5027;53.560;10.062;2024-03-02T08:22:42;11.80;99.90
9973;DHT22;5027;53.560;10.062;2024-03-02T08:25:09;11.80;99.90
9973;DHT22;5027;53.560;10.062;2024-03-02T08:27:37;11.80;99.90
9973;DHT22;5027;53.560;10.062;2024-03-02T08:30:05;11.80;99.90
9973;DHT22;5027;53.560;10.062;2024-03-02T08:32:34;11.80;99.90
9973;DHT22;5027;53.560;10.062;2024-03-02T08:35:01;11.80;99.90
9973;DHT22;5027;53.560;10.062;2024-03-02T08:37:27;11.80;99.90
9973;DHT22;5027;53.560;10.062;2024-03-02T08:39:54;11.80;99.90
9973;DHT22;5027;53.560;10.062;2024-03-02T08:42:22;11.80;99.90
9973;DHT22;5027;53.560;10.062;2024-03-02T08:44:49;11.80;99.90
9973;DHT22;5027;53.560;10.062;2024-03-02T08:47:16;11.90;99.90
9973;DHT22;5027;53.560;10.062;2024-03-02T08:49:43;11.90;99.90
9973;DHT22;5027;53.560;10.062;2024-03-02T08:52:10;12.00;99.90
9973;DHT22;5027;53.560;10.062;2024-03-02T08:54:36;11.90;99.90
9973;DHT22;5027;53.560;10.062;2024-03-02T08:57:04;11.90;99.90
9973;DHT22;5027;53.560;10.062;2024-03-02T08:59:31;12.00;99.90
9973;DHT22;5027;53.560;10.062;2024-03-02T09:01:58;12.00;99.90
9973;DHT22;5027;53.560;10.062;2024-03-02T09:04:25;12.00;99.90
9973;DHT22;5027;53.560;10.062;2024-03-02T09:06:55;12.00;99.90
9973;DHT22;5027;53.560;10.062;2024-03-02T09:09:22;12.00;99.90
9973;DHT22;5027;53.560;10.062;2024-03-02T09:11:48;12.10;99.90
9973;DHT22;5027;53.560;10.062;2024-03-02T09:14:15;12.20;99.90
9973;DHT22;5027;53.560;10.062;2024-03-02T09:16:42;12.20;99.90
9973;DHT22;5027;53.560;10.062;2024-03-02T09:19:09;12.20;99.90
9973;DHT22;5027;53.560;10.062;2024-03-02T09:21:37;12.10;99.90
9973;DHT22;5027;53.560;10.062;2024-03-02T09:24:04;12.10;99.90
9973;DHT22;5027;53.560;10.062;2024-03-02T09:26:33;12.20;99.90
9973;DHT22;5027;53.560;10.062;2024-03-02T09:29:00;12.10;99.90
9973;DHT22;5027;53.560;10.062;2024-03-02T09:31:26;12.30;99.90
9973;DHT22;5027;53.560;10.062;2024-03-02T09:33:53;12.20;99.90
9973;DHT22;5027;53.560;10.062;2024-03-02T09:36:21;12.30;99.90
9973;DHT22;5027;53.560;10.062;2024-03-02T09:38:48;12.30;99.90
9973;DHT22;5027;53.560;10.062;2024-03-02T09:41:15;12.30;99.90
9973;DHT22;5027;53.560;10.062;2024-03-02T09:43:42;12.30;99.90
9973;DHT22;5027;53.560;10.062;2024-03-02T09:46:09;12.40;99.90
9973;DHT22;5027;53.560;10.062;2024-03-02T09:48:37;12.50;99.90
9973;DHT22;5027;53.560;10.062;2024-03-02T09:51:04;12.50;99.90
9973;DHT22;5027;53.560;10.062;2024-03-02T09:53:32;12.60;99.90
9973;DHT22;5027;53.560;10.062;2024-03-02T09:56:00;12.70;99.90
9973;DHT22;5027;53.560;10.062;2024-03-02T09:58:27;12.80;99.90
9973;DHT22;5027;53.560;10.062;2024-03-02T10:00:54;12.80;99.90
9973;DHT22;5027;53.560;10.062;2024-03-02T10:03:25;12.90;99.90
9973;DHT22;5027;53.560;10.062;2024-03-02T10:05:53;12.90;99.90
9973;DHT22;5027;53.560;10.062;2024-03-02T10:08:20;12.90;99.90
9973;DHT22;5027;53.560;10.062;2024-03-02T10:10:46;13.00;99.90
9973;DHT22;5027;53.560;10.062;2024-03-02T10:13:13;13.10;99.90
9973;DHT22;5027;53.560;10.062;2024-03-02T10:15:41;13.10;99.90
9973;DHT22;5027;53.560;10.062;2024-03-02T10:18:09;13.20;99.90
9973;DHT22;5027;53.560;10.062;2024-03-02T10:20:38;13.20;99.90
9973;DHT22;5027;53.560;10.062;2024-03-02T10:23:15;13.20;99.90
9973;DHT22;5027;53.560;10.062;2024-03-02T10:25:44;13.30;99.90
9973;DHT22;5027;53.560;10.062;2024-03-02T10:28:23;13.30;99.90
9973;DHT22;5027;53.560;10.062;2024-03-02T10:30:51;13.30;99.90
9973;DHT22;5027;53.560;10.062;2024-03-02T10:33:19;13.40;99.90
9973;DHT22;5027;53.560;10.062;2024-03-02T10:35:48;13.60;99.90
9973;DHT22;5027;53.560;10.062;2024-03-02T10:38:17;13.60;99.90
9973;DHT22;5027;53.560;10.062;2024-03-02T10:40:47;13.60;99.90
9973;DHT22;5027;53.560;10.062;2024-03-02T10:43:14;13.60;99.90
9973;DHT22;5027;53.560;10.062;2024-03-02T10:45:42;13.40;99.90
9973;DHT22;5027;53.560;10.062;2024-03-02T10:48:09;13.40;99.90
9973;DHT22;5027;53.560;10.062;2024-03-02T10:50:36;13.40;99.90
9973;DHT22;5027;53.560;10.062;2024-03-02T10:53:03;13.50;99.90
9973;DHT22;5027;53.560;10.062;2024-03-02T10:55:32;13.50;99.90
9973;DHT22;5027;53.560;10.062;2024-03-02T10:58:00;13.50;99.90
9973;DHT22;5027;53.560;10.062;2024-03-02T11:00:33;13.50;99.90
9973;DHT22;5027;53.560;10.062;2024-03-02T11:03:07;13.60;99.90
9973;DHT22;5027;53.560;10.062;2024-03-02T11:05:40;13.60;99.90
9973;DHT22;5027;53.560;10.062;2024-03-02T11:08:13;13.60;99.90
9973;DHT22;5027;53.560;10.062;2024-03-02T11:10:51;13.70;99.90
9973;DHT22;5027;53.560;10.062;2024-03-02T11:13:24;13.60;99.90
9973;DHT22;5027;53.560;10.062;2024-03-02T11:16:26;13.60;99.90
9973;DHT22;5027;53.560;10.062;2024-03-02T11:18:46;13.60;99.90
9973;DHT22;5027;53.560;10.062;2024-03-02T11:21:13;13.60;99.90
9973;DHT22;5027;53.560;10.062;2024-03-02T11:23:40;13.60;99.90
9973;DHT22;5027;53.560;10.062;2024-03-02T11:26:20;13.60;99.90
9973;DHT22;5027;53.560;10.062;2024-03-02T11:28:48;13.60;99.90
9973;DHT22;5027;53.560;10.062;2024-03-02T11:31:14;13.60;99.90
9973;DHT22;5027;53.560;10.062;2024-03-02T11:33:41;13.50;99.90
9973;DHT22;5027;53.560;10.062;2024-03-02T11:36:09;13.60;99.90
9973;DHT22;5027;53.560;10.062;2024-03-02T11:38:38;13.60;99.90
9973;DHT22;5027;53.560;10.062;2024-03-02T11:41:07;13.60;99.90
9973;DHT22;5027;53.560;10.062;2024-03-02T11:43:38;13.50;99.90
9973;DHT22;5027;53.560;10.062;2024-03-02T11:46:08;13.60;99.90
9973;DHT22;5027;53.560;10.062;2024-03-02T11:48:36;13.60;99.90
9973;DHT22;5027;53.560;10.062;2024-03-02T11:51:04;13.50;99.90
9973;DHT22;5027;53.560;10.062;2024-03-02T11:53:31;13.50;99.90
9973;DHT22;5027;53.560;10.062;2024-03-02T11:56:02;13.60;99.90
9973;DHT22;5027;53.560;10.062;2024-03-02T11:58:29;13.60;99.90
9973;DHT22;5027;53.560;10.062;2024-03-02T12:00:56;13.60;99.90
9973;DHT22;5027;53.560;10.062;2024-03-02T12:03:25;13.60;99.90
9973;DHT22;5027;53.560;10.062;2024-03-02T12:05:53;13.60;99.90
9973;DHT22;5027;53.560;10.062;2024-03-02T12:08:20;13.60;99.90
9973;DHT22;5027;53.560;10.062;2024-03-02T12:11:01;13.60;99.90
9973;DHT22;5027;53.560;10.062;2024-03-02T12:13:30;13.60;99.90
9973;DHT22;5027;53.560;10.062;2024-03-02T12:15:57;13.60;99.90
9973;DHT22;5027;53.560;10.062;2024-03-02T12:18:24;13.60;99.90
9973;DHT22;5027;53.560;10.062;2024-03-02T12:20:52;13.60;99.90
9973;DHT22;5027;53.560;10.062;2024-03-02T12:23:19;13.60;99.90
9973;DHT22;5027;53.560;10.062;2024-03-02T12:25:46;13.60;99.90
9973;DHT22;5027;53.560;10.062;2024-03-02T12:28:13;13.60;99.90
9973;DHT22;5027;53.560;10.062;2024-03-02T12:30:40;13.60;99.90
9973;DHT22;5027;53.560;10.062;2024-03-02T12:33:06;13.70;99.90
9973;DHT22;5027;53.560;10.062;2024-03-02T12:35:33;13.70;99.90
9973;DHT22;5027;53.560;10.062;2024-03-02T12:38:00;13.70;99.90
9973;DHT22;5027;53.560;10.062;2024-03-02T12:40:27;13.70;99.90
9973;DHT22;5027;53.560;10.062;2024-03-02T12:42:53;13.70;99.90
9973;DHT22;5027;53.560;10.062;2024-03-02T12:45:20;13.70;99.90
9973;DHT22;5027;53.560;10.062;2024-03-02T12:47:51;13.70;99.90
9973;DHT22;5027;53.560;10.062;2024-03-02T12:50:19;13.70;99.90
9973;DHT22;5027;53.560;10.062;2024-03-02T12:52:53;13.70;99.90
9973;DHT22;5027;53.560;10.062;2024-03-02T12:55:20;13.70;99.90
9973;DHT22;5027;53.560;10.062;2024-03-02T12:57:50;13.70;99.90
9973;DHT22;5027;53.560;10.062;2024-03-02T13:00:18;13.70;99.90
9973;DHT22;5027;53.560;10.062;2024-03-02T13:02:46;13.70;99.90
9973;DHT22;5027;53.560;10.062;2024-03-02T13:05:13;13.70;99.90
9973;DHT22;5027;53.560;10.062;2024-03-02T13:07:40;13.70;99.90
9973;DHT22;5027;53.560;10.062;2024-03-02T13:10:12;13.70;99.90
9973;DHT22;5027;53.560;10.062;2024-03-02T13:12:39;13.70;99.90
9973;DHT22;5027;53.560;10.062;2024-03-02T13:15:06;13.80;99.90
9973;DHT22;5027;53.560;10.062;2024-03-02T13:17:35;13.70;99.90
9973;DHT22;5027;53.560;10.062;2024-03-02T13:20:05;13.80;99.90
9973;DHT22;5027;53.560;10.062;2024-03-02T13:22:35;13.70;99.90
9973;DHT22;5027;53.560;10.062;2024-03-02T13:25:02;13.70;99.90
9973;DHT22;5027;53.560;10.062;2024-03-02T13:27:32;13.80;99.90
9973;DHT22;5027;53.560;10.062;2024-03-02T13:29:59;13.70;99.90
9973;DHT22;5027;53.560;10.062;2024-03-02T13:32:26;13.70;99.90
9973;DHT22;5027;53.560;10.062;2024-03-02T13:34:53;13.70;99.90
9973;DHT22;5027;53.560;10.062;2024-03-02T13:37:20;13.70;99.90
9973;DHT22;5027;53.560;10.062;2024-03-02T13:39:48;13.70;99.90
9973;DHT22;5027;53.560;10.062;2024-03-02T13:42:15;13.70;99.90
9973;DHT22;5027;53.560;10.062;2024-03-02T13:44:45;13.70;99.90
9973;DHT22;5027;53.560;10.062;2024-03-02T13:47:14;13.70;99.90
9973;DHT22;5027;53.560;10.062;2024-03-02T13:49:41;13.80;99.90
9973;DHT22;5027;53.560;10.062;2024-03-02T13:52:11;13.80;99.90
9973;DHT22;5027;53.560;10.062;2024-03-02T13:54:40;13.80;99.90
9973;DHT22;5027;53.560;10.062;2024-03-02T13:57:09;13.80;99.90
9973;DHT22;5027;53.560;10.062;2024-03-02T13:59:37;13.90;99.90
9973;DHT22;5027;53.560;10.062;2024-03-02T14:02:05;13.90;99.90
9973;DHT22;5027;53.560;10.062;2024-03-02T14:04:36;14.00;99.90
9973;DHT22;5027;53.560;10.062;2024-03-02T14:07:03;14.10;99.90
9973;DHT22;5027;53.560;10.062;2024-03-02T14:09:33;14.10;99.90
9973;DHT22;5027;53.560;10.062;2024-03-02T14:12:00;14.10;99.90
9973;DHT22;5027;53.560;10.062;2024-03-02T14:14:27;14.20;99.90
9973;DHT22;5027;53.560;10.062;2024-03-02T14:16:57;14.30;99.90
9973;DHT22;5027;53.560;10.062;2024-03-02T14:19:27;14.40;99.90
9973;DHT22;5027;53.560;10.062;2024-03-02T14:21:54;14.60;99.90
9973;DHT22;5027;53.560;10.062;2024-03-02T14:24:20;14.60;99.90
9973;DHT22;5027;53.560;10.062;2024-03-02T14:26:50;14.70;99.90
9973;DHT22;5027;53.560;10.062;2024-03-02T14:29:19;14.70;99.90
9973;DHT22;5027;53.560;10.062;2024-03-02T14:31:45;14.70;99.90
9973;DHT22;5027;53.560;10.062;2024-03-02T14:34:15;14.70;99.90
9973;DHT22;5027;53.560;10.062;2024-03-02T14:36:42;14.60;99.90
9973;DHT22;5027;53.560;10.062;2024-03-02T14:39:11;14.60;99.90
9973;DHT22;5027;53.560;10.062;2024-03-02T14:41:38;14.50;99.90
9973;DHT22;5027;53.560;10.062;2024-03-02T14:44:04;14.50;99.90
9973;DHT22;5027;53.560;10.062;2024-03-02T14:46:31;14.50;99.90
9973;DHT22;5027;53.560;10.062;2024-03-02T14:48:58;14.50;99.90
9973;DHT22;5027;53.560;10.062;2024-03-02T14:51:25;14.50;99.90
9973;DHT22;5027;53.560;10.062;2024-03-02T14:53:52;14.50;99.90
9973;DHT22;5027;53.560;10.062;2024-03-02T14:56:19;14.60;99.90
9973;DHT22;5027;53.560;10.062;2024-03-02T14:58:45;14.60;99.90
9973;DHT22;5027;53.560;10.062;2024-03-02T15:01:12;14.50;99.90
9973;DHT22;5027;53.560;10.062;2024-03-02T15:03:40;14.50;99.90
9973;DHT22;5027;53.560;10.062;2024-03-02T15:06:06;14.50;99.90
9973;DHT22;5027;53.560;10.062;2024-03-02T15:08:34;14.50;99.90
9973;DHT22;5027;53.560;10.062;2024-03-02T15:11:01;14.50;99.90
9973;DHT22;5027;53.560;10.062;2024-03-02T15:13:28;14.50;99.90
9973;DHT22;5027;53.560;10.062;2024-03-02T15:15:55;14.50;99.90
9973;DHT22;5027;53.560;10.062;2024-03-02T15:18:22;14.50;99.90
9973;DHT22;5027;53.560;10.062;2024-03-02T15:20:50;14.50;99.90
9973;DHT22;5027;53.560;10.062;2024-03-02T15:23:17;14.50;99.90
9973;DHT22;5027;53.560;10.062;2024-03-02T15:25:44;14.40;99.90
9973;DHT22;5027;53.560;10.062;2024-03-02T15:28:10;14.40;99.90
9973;DHT22;5027;53.560;10.062;2024-03-02T15:30:37;14.40;99.90
9973;DHT22;5027;53.560;10.062;2024-03-02T15:33:04;14.40;99.90
9973;DHT22;5027;53.560;10.062;2024-03-02T15:35:31;14.40;99.90
9973;DHT22;5027;53.560;10.062;2024-03-02T15:37:58;14.40;99.90
9973;DHT22;5027;53.560;10.062;2024-03-02T15:40:24;14.40;99.90
9973;DHT22;5027;53.560;10.062;2024-03-02T15:42:51;14.40;99.90
9973;DHT22;5027;53.560;10.062;2024-03-02T15:45:18;14.30;99.90
9973;DHT22;5027;53.560;10.062;2024-03-02T15:47:44;14.20;99.90
9973;DHT22;5027;53.560;10.062;2024-03-02T15:50:11;14.30;99.90
9973;DHT22;5027;53.560;10.062;2024-03-02T15:52:39;14.20;99.90